14°C Temp
10°C Dewpoint
77% Humidity
Temperature
11 KM/H
7 MPH
6 KTS
280°
Due West

Wind Speed
Mostly Cloudy
Conditions
Pressure 1008.92 (hPa) - 29.79 (in)
Visibility 6.2 (mi) - 10.0 (km)

Current Conditions
UKLI
Location 9(km)
Metar :UKLI 181630Z 28003MPS 9999 BKN046 14/10 Q1009 R28/090070 NOSIG
Sat 18th September 19:30 pm

Airport